sensor_id;sensor_type;location;lat;lon;timestamp;P1;durP1;ratioP1;P2;durP2;ratioP2
66886;SDS011;53798;51.680;5.976;2022-11-04T00:01:52;5.90;;;3.90;;
66886;SDS011;53798;51.680;5.976;2022-11-04T00:04:20;4.88;;;4.07;;
66886;SDS011;53798;51.680;5.976;2022-11-04T00:06:49;6.63;;;4.20;;
66886;SDS011;53798;51.680;5.976;2022-11-04T00:09:19;6.68;;;4.43;;
66886;SDS011;53798;51.680;5.976;2022-11-04T00:11:49;6.05;;;4.18;;
66886;SDS011;53798;51.680;5.976;2022-11-04T00:14:35;6.68;;;3.80;;
66886;SDS011;53798;51.680;5.976;2022-11-04T00:17:04;4.15;;;3.75;;
66886;SDS011;53798;51.680;5.976;2022-11-04T00:19:51;5.00;;;3.70;;
66886;SDS011;53798;51.680;5.976;2022-11-04T00:22:40;4.32;;;3.72;;
66886;SDS011;53798;51.680;5.976;2022-11-04T00:25:28;5.45;;;4.00;;
66886;SDS011;53798;51.680;5.976;2022-11-04T00:28:14;5.78;;;3.38;;
66886;SDS011;53798;51.680;5.976;2022-11-04T00:31:04;4.55;;;3.03;;
66886;SDS011;53798;51.680;5.976;2022-11-04T00:33:52;2.53;;;1.90;;
66886;SDS011;53798;51.680;5.976;2022-11-04T00:36:22;4.45;;;1.50;;
66886;SDS011;53798;51.680;5.976;2022-11-04T00:38:51;4.28;;;1.40;;
66886;SDS011;53798;51.680;5.976;2022-11-04T00:41:19;1.65;;;0.80;;
66886;SDS011;53798;51.680;5.976;2022-11-04T00:43:57;1.58;;;1.00;;
66886;SDS011;53798;51.680;5.976;2022-11-04T00:46:28;2.13;;;1.08;;
66886;SDS011;53798;51.680;5.976;2022-11-04T00:48:57;1.45;;;0.80;;
66886;SDS011;53798;51.680;5.976;2022-11-04T00:51:25;1.20;;;0.80;;
66886;SDS011;53798;51.680;5.976;2022-11-04T00:53:52;0.93;;;0.70;;
66886;SDS011;53798;51.680;5.976;2022-11-04T00:56:21;1.45;;;0.73;;
66886;SDS011;53798;51.680;5.976;2022-11-04T00:58:48;0.95;;;0.65;;
66886;SDS011;53798;51.680;5.976;2022-11-04T01:01:16;1.48;;;0.70;;
66886;SDS011;53798;51.680;5.976;2022-11-04T01:03:45;0.80;;;0.63;;
66886;SDS011;53798;51.680;5.976;2022-11-04T01:06:15;0.90;;;0.68;;
66886;SDS011;53798;51.680;5.976;2022-11-04T01:08:44;1.30;;;0.80;;
66886;SDS011;53798;51.680;5.976;2022-11-04T01:11:12;1.60;;;1.20;;
66886;SDS011;53798;51.680;5.976;2022-11-04T01:13:40;1.63;;;1.35;;
66886;SDS011;53798;51.680;5.976;2022-11-04T01:16:08;1.80;;;1.40;;
66886;SDS011;53798;51.680;5.976;2022-11-04T01:18:40;1.63;;;1.33;;
66886;SDS011;53798;51.680;5.976;2022-11-04T01:21:08;2.80;;;1.70;;
66886;SDS011;53798;51.680;5.976;2022-11-04T01:23:39;4.80;;;1.73;;
66886;SDS011;53798;51.680;5.976;2022-11-04T01:26:12;5.03;;;2.08;;
66886;SDS011;53798;51.680;5.976;2022-11-04T01:28:45;3.88;;;3.08;;
66886;SDS011;53798;51.680;5.976;2022-11-04T01:31:14;4.25;;;3.85;;
66886;SDS011;53798;51.680;5.976;2022-11-04T01:33:47;7.57;;;5.27;;
66886;SDS011;53798;51.680;5.976;2022-11-04T01:36:19;12.15;;;6.15;;
66886;SDS011;53798;51.680;5.976;2022-11-04T01:38:47;8.40;;;6.78;;
66886;SDS011;53798;51.680;5.976;2022-11-04T01:41:16;9.60;;;7.50;;
66886;SDS011;53798;51.680;5.976;2022-11-04T01:43:51;11.15;;;7.93;;
66886;SDS011;53798;51.680;5.976;2022-11-04T01:46:31;13.05;;;8.02;;
66886;SDS011;53798;51.680;5.976;2022-11-04T01:49:20;12.23;;;8.43;;
66886;SDS011;53798;51.680;5.976;2022-11-04T01:52:00;11.30;;;8.23;;
66886;SDS011;53798;51.680;5.976;2022-11-04T01:54:34;11.75;;;7.93;;
66886;SDS011;53798;51.680;5.976;2022-11-04T01:57:04;10.85;;;8.32;;
66886;SDS011;53798;51.680;5.976;2022-11-04T01:59:40;10.98;;;8.38;;
66886;SDS011;53798;51.680;5.976;2022-11-04T02:02:08;11.68;;;8.45;;
66886;SDS011;53798;51.680;5.976;2022-11-04T02:04:36;11.55;;;7.90;;
66886;SDS011;53798;51.680;5.976;2022-11-04T02:07:06;13.93;;;7.93;;
66886;SDS011;53798;51.680;5.976;2022-11-04T02:09:37;12.77;;;7.75;;
66886;SDS011;53798;51.680;5.976;2022-11-04T02:12:07;11.18;;;7.40;;
66886;SDS011;53798;51.680;5.976;2022-11-04T02:14:53;13.68;;;7.50;;
66886;SDS011;53798;51.680;5.976;2022-11-04T02:20:59;9.65;;;6.78;;
66886;SDS011;53798;51.680;5.976;2022-11-04T02:24:19;10.38;;;6.95;;
66886;SDS011;53798;51.680;5.976;2022-11-04T02:27:21;9.35;;;6.72;;
66886;SDS011;53798;51.680;5.976;2022-11-04T02:44:32;10.95;;;6.22;;
66886;SDS011;53798;51.680;5.976;2022-11-04T02:47:10;9.38;;;6.15;;
66886;SDS011;53798;51.680;5.976;2022-11-04T02:49:44;10.25;;;6.60;;
66886;SDS011;53798;51.680;5.976;2022-11-04T02:52:30;12.35;;;6.50;;
66886;SDS011;53798;51.680;5.976;2022-11-04T02:55:16;9.17;;;6.13;;
66886;SDS011;53798;51.680;5.976;2022-11-04T02:57:51;11.20;;;6.25;;
66886;SDS011;53798;51.680;5.976;2022-11-04T03:00:24;9.30;;;6.10;;
66886;SDS011;53798;51.680;5.976;2022-11-04T03:02:53;9.93;;;5.90;;
66886;SDS011;53798;51.680;5.976;2022-11-04T03:05:28;8.30;;;5.68;;
66886;SDS011;53798;51.680;5.976;2022-11-04T03:08:01;9.77;;;6.03;;
66886;SDS011;53798;51.680;5.976;2022-11-04T03:10:37;11.00;;;5.97;;
66886;SDS011;53798;51.680;5.976;2022-11-04T03:13:18;10.43;;;6.00;;
66886;SDS011;53798;51.680;5.976;2022-11-04T03:15:56;10.55;;;6.07;;
66886;SDS011;53798;51.680;5.976;2022-11-04T03:18:33;10.68;;;6.30;;
66886;SDS011;53798;51.680;5.976;2022-11-04T03:21:13;7.80;;;5.35;;
66886;SDS011;53798;51.680;5.976;2022-11-04T03:23:42;11.50;;;5.10;;
66886;SDS011;53798;51.680;5.976;2022-11-04T03:29:10;7.78;;;4.55;;
66886;SDS011;53798;51.680;5.976;2022-11-04T03:34:47;9.82;;;4.63;;
66886;SDS011;53798;51.680;5.976;2022-11-04T03:37:15;15.90;;;4.63;;
66886;SDS011;53798;51.680;5.976;2022-11-04T03:39:43;9.20;;;4.30;;
66886;SDS011;53798;51.680;5.976;2022-11-04T03:42:10;12.88;;;4.60;;
66886;SDS011;53798;51.680;5.976;2022-11-04T03:44:50;7.53;;;4.30;;
66886;SDS011;53798;51.680;5.976;2022-11-04T03:47:21;8.20;;;4.10;;
66886;SDS011;53798;51.680;5.976;2022-11-04T03:49:54;13.43;;;4.35;;
66886;SDS011;53798;51.680;5.976;2022-11-04T03:52:39;11.00;;;3.63;;
66886;SDS011;53798;51.680;5.976;2022-11-04T03:55:06;8.15;;;3.70;;
66886;SDS011;53798;51.680;5.976;2022-11-04T03:57:56;9.45;;;3.63;;
66886;SDS011;53798;51.680;5.976;2022-11-04T04:00:40;8.15;;;3.20;;
66886;SDS011;53798;51.680;5.976;2022-11-04T04:03:20;9.65;;;3.42;;
66886;SDS011;53798;51.680;5.976;2022-11-04T04:06:08;8.40;;;3.10;;
66886;SDS011;53798;51.680;5.976;2022-11-04T04:11:41;8.73;;;3.60;;
66886;SDS011;53798;51.680;5.976;2022-11-04T04:14:30;6.03;;;3.30;;
66886;SDS011;53798;51.680;5.976;2022-11-04T04:19:52;7.00;;;2.83;;
66886;SDS011;53798;51.680;5.976;2022-11-04T04:22:31;9.45;;;3.08;;
66886;SDS011;53798;51.680;5.976;2022-11-04T04:25:06;8.15;;;3.30;;
66886;SDS011;53798;51.680;5.976;2022-11-04T04:28:02;5.47;;;2.75;;
66886;SDS011;53798;51.680;5.976;2022-11-04T04:30:31;9.52;;;3.08;;
66886;SDS011;53798;51.680;5.976;2022-11-04T04:35:39;9.13;;;3.13;;
66886;SDS011;53798;51.680;5.976;2022-11-04T04:38:22;8.60;;;3.45;;
66886;SDS011;53798;51.680;5.976;2022-11-04T04:41:19;7.68;;;2.75;;
66886;SDS011;53798;51.680;5.976;2022-11-04T04:44:29;8.18;;;3.00;;
66886;SDS011;53798;51.680;5.976;2022-11-04T04:47:17;6.13;;;2.90;;
66886;SDS011;53798;51.680;5.976;2022-11-04T04:49:55;5.10;;;2.90;;
66886;SDS011;53798;51.680;5.976;2022-11-04T04:52:32;8.13;;;3.17;;
66886;SDS011;53798;51.680;5.976;2022-11-04T04:55:06;6.63;;;2.95;;
66886;SDS011;53798;51.680;5.976;2022-11-04T04:57:34;9.95;;;2.97;;
66886;SDS011;53798;51.680;5.976;2022-11-04T05:00:02;6.28;;;2.80;;
66886;SDS011;53798;51.680;5.976;2022-11-04T05:02:31;7.22;;;3.03;;
66886;SDS011;53798;51.680;5.976;2022-11-04T05:05:00;7.32;;;2.97;;
66886;SDS011;53798;51.680;5.976;2022-11-04T05:07:27;7.50;;;2.80;;
66886;SDS011;53798;51.680;5.976;2022-11-04T05:09:54;6.82;;;3.25;;
66886;SDS011;53798;51.680;5.976;2022-11-04T05:12:22;8.90;;;2.90;;
66886;SDS011;53798;51.680;5.976;2022-11-04T05:14:49;7.13;;;3.15;;
66886;SDS011;53798;51.680;5.976;2022-11-04T05:17:16;7.05;;;2.78;;
66886;SDS011;53798;51.680;5.976;2022-11-04T05:19:43;8.55;;;3.10;;
66886;SDS011;53798;51.680;5.976;2022-11-04T05:22:10;6.70;;;3.42;;
66886;SDS011;53798;51.680;5.976;2022-11-04T05:24:38;7.72;;;3.10;;
66886;SDS011;53798;51.680;5.976;2022-11-04T05:27:05;8.40;;;3.25;;
66886;SDS011;53798;51.680;5.976;2022-11-04T05:29:32;9.40;;;3.20;;
66886;SDS011;53798;51.680;5.976;2022-11-04T05:31:59;9.38;;;3.30;;
66886;SDS011;53798;51.680;5.976;2022-11-04T05:34:26;10.73;;;3.70;;
66886;SDS011;53798;51.680;5.976;2022-11-04T05:36:53;6.22;;;3.35;;
66886;SDS011;53798;51.680;5.976;2022-11-04T05:39:20;8.82;;;3.67;;
66886;SDS011;53798;51.680;5.976;2022-11-04T05:41:47;9.60;;;3.75;;
66886;SDS011;53798;51.680;5.976;2022-11-04T05:44:14;11.00;;;3.60;;
66886;SDS011;53798;51.680;5.976;2022-11-04T05:46:41;12.70;;;3.83;;
66886;SDS011;53798;51.680;5.976;2022-11-04T05:49:09;7.35;;;3.65;;
66886;SDS011;53798;51.680;5.976;2022-11-04T05:51:36;10.77;;;3.30;;
66886;SDS011;53798;51.680;5.976;2022-11-04T05:54:03;11.60;;;3.80;;
66886;SDS011;53798;51.680;5.976;2022-11-04T05:56:31;6.85;;;3.72;;
66886;SDS011;53798;51.680;5.976;2022-11-04T05:58:58;10.35;;;4.00;;
66886;SDS011;53798;51.680;5.976;2022-11-04T06:01:32;8.40;;;4.07;;
66886;SDS011;53798;51.680;5.976;2022-11-04T06:04:05;11.40;;;4.20;;
66886;SDS011;53798;51.680;5.976;2022-11-04T06:06:39;8.93;;;3.97;;
66886;SDS011;53798;51.680;5.976;2022-11-04T06:09:07;9.10;;;4.00;;
66886;SDS011;53798;51.680;5.976;2022-11-04T06:11:34;10.40;;;5.13;;
66886;SDS011;53798;51.680;5.976;2022-11-04T06:14:03;14.55;;;4.68;;
66886;SDS011;53798;51.680;5.976;2022-11-04T06:16:31;14.60;;;5.70;;
66886;SDS011;53798;51.680;5.976;2022-11-04T06:18:58;18.67;;;6.30;;
66886;SDS011;53798;51.680;5.976;2022-11-04T06:21:33;13.27;;;5.38;;
66886;SDS011;53798;51.680;5.976;2022-11-04T06:24:01;14.50;;;5.47;;
66886;SDS011;53798;51.680;5.976;2022-11-04T06:26:29;11.75;;;5.60;;
66886;SDS011;53798;51.680;5.976;2022-11-04T06:28:58;13.30;;;5.82;;
66886;SDS011;53798;51.680;5.976;2022-11-04T06:31:25;10.90;;;5.05;;
66886;SDS011;53798;51.680;5.976;2022-11-04T06:33:55;8.60;;;4.70;;
66886;SDS011;53798;51.680;5.976;2022-11-04T06:36:22;9.90;;;4.93;;
66886;SDS011;53798;51.680;5.976;2022-11-04T06:38:49;13.20;;;5.03;;
66886;SDS011;53798;51.680;5.976;2022-11-04T06:41:16;13.55;;;5.60;;
66886;SDS011;53798;51.680;5.976;2022-11-04T06:43:43;12.98;;;5.00;;
66886;SDS011;53798;51.680;5.976;2022-11-04T06:46:24;12.52;;;5.20;;
66886;SDS011;53798;51.680;5.976;2022-11-04T06:49:04;11.50;;;5.50;;
66886;SDS011;53798;51.680;5.976;2022-11-04T06:51:35;10.75;;;5.13;;
66886;SDS011;53798;51.680;5.976;2022-11-04T06:54:11;10.27;;;4.65;;
66886;SDS011;53798;51.680;5.976;2022-11-04T06:56:39;10.35;;;4.45;;
66886;SDS011;53798;51.680;5.976;2022-11-04T06:59:15;13.30;;;5.40;;
66886;SDS011;53798;51.680;5.976;2022-11-04T07:01:46;12.75;;;4.68;;
66886;SDS011;53798;51.680;5.976;2022-11-04T07:04:16;11.65;;;4.90;;
66886;SDS011;53798;51.680;5.976;2022-11-04T07:06:43;13.80;;;6.32;;
66886;SDS011;53798;51.680;5.976;2022-11-04T07:09:12;16.10;;;6.40;;
66886;SDS011;53798;51.680;5.976;2022-11-04T07:11:41;16.50;;;6.85;;
66886;SDS011;53798;51.680;5.976;2022-11-04T07:14:10;10.57;;;6.18;;
66886;SDS011;53798;51.680;5.976;2022-11-04T07:16:38;10.90;;;5.93;;
66886;SDS011;53798;51.680;5.976;2022-11-04T07:19:05;10.32;;;5.20;;
66886;SDS011;53798;51.680;5.976;2022-11-04T07:21:32;15.43;;;5.47;;
66886;SDS011;53798;51.680;5.976;2022-11-04T07:24:00;11.43;;;4.53;;
66886;SDS011;53798;51.680;5.976;2022-11-04T07:26:27;13.75;;;5.18;;
66886;SDS011;53798;51.680;5.976;2022-11-04T07:28:54;11.88;;;5.18;;
66886;SDS011;53798;51.680;5.976;2022-11-04T07:31:21;12.88;;;5.90;;
66886;SDS011;53798;51.680;5.976;2022-11-04T07:33:49;9.73;;;4.72;;
66886;SDS011;53798;51.680;5.976;2022-11-04T07:36:17;11.82;;;6.13;;
66886;SDS011;53798;51.680;5.976;2022-11-04T07:38:47;15.75;;;7.18;;
66886;SDS011;53798;51.680;5.976;2022-11-04T07:41:15;25.60;;;12.60;;
66886;SDS011;53798;51.680;5.976;2022-11-04T07:43:46;30.52;;;18.60;;
66886;SDS011;53798;51.680;5.976;2022-11-04T07:46:19;32.47;;;21.10;;
66886;SDS011;53798;51.680;5.976;2022-11-04T07:48:46;43.30;;;20.65;;
66886;SDS011;53798;51.680;5.976;2022-11-04T07:51:14;33.17;;;18.30;;
66886;SDS011;53798;51.680;5.976;2022-11-04T07:53:43;17.45;;;8.88;;
66886;SDS011;53798;51.680;5.976;2022-11-04T07:56:11;21.92;;;13.50;;
66886;SDS011;53798;51.680;5.976;2022-11-04T07:58:40;16.50;;;8.45;;
66886;SDS011;53798;51.680;5.976;2022-11-04T08:01:08;16.00;;;9.02;;
66886;SDS011;53798;51.680;5.976;2022-11-04T08:03:42;16.92;;;8.98;;
66886;SDS011;53798;51.680;5.976;2022-11-04T08:06:10;15.82;;;8.32;;
66886;SDS011;53798;51.680;5.976;2022-11-04T08:08:40;18.95;;;9.55;;
66886;SDS011;53798;51.680;5.976;2022-11-04T08:11:10;14.40;;;7.72;;
66886;SDS011;53798;51.680;5.976;2022-11-04T08:13:44;16.48;;;8.48;;
66886;SDS011;53798;51.680;5.976;2022-11-04T08:16:14;16.88;;;9.75;;
66886;SDS011;53798;51.680;5.976;2022-11-04T08:18:48;21.50;;;13.20;;
66886;SDS011;53798;51.680;5.976;2022-11-04T08:21:20;18.60;;;11.40;;
66886;SDS011;53798;51.680;5.976;2022-11-04T08:23:47;18.90;;;9.15;;
66886;SDS011;53798;51.680;5.976;2022-11-04T08:26:17;12.60;;;5.45;;
66886;SDS011;53798;51.680;5.976;2022-11-04T08:28:46;14.50;;;7.53;;
66886;SDS011;53798;51.680;5.976;2022-11-04T08:31:17;14.93;;;9.90;;
66886;SDS011;53798;51.680;5.976;2022-11-04T08:33:52;14.57;;;7.43;;
66886;SDS011;53798;51.680;5.976;2022-11-04T08:36:22;12.63;;;6.43;;
66886;SDS011;53798;51.680;5.976;2022-11-04T08:41:24;7.82;;;4.57;;
66886;SDS011;53798;51.680;5.976;2022-11-04T08:43:55;13.52;;;5.25;;
66886;SDS011;53798;51.680;5.976;2022-11-04T08:46:26;12.10;;;5.75;;
66886;SDS011;53798;51.680;5.976;2022-11-04T08:48:56;13.60;;;4.57;;
66886;SDS011;53798;51.680;5.976;2022-11-04T08:51:24;11.65;;;3.70;;
66886;SDS011;53798;51.680;5.976;2022-11-04T08:53:54;9.75;;;3.67;;
66886;SDS011;53798;51.680;5.976;2022-11-04T08:56:23;10.50;;;3.75;;
66886;SDS011;53798;51.680;5.976;2022-11-04T08:58:55;12.38;;;4.78;;
66886;SDS011;53798;51.680;5.976;2022-11-04T09:01:28;17.88;;;3.90;;
66886;SDS011;53798;51.680;5.976;2022-11-04T09:04:02;9.18;;;3.95;;
66886;SDS011;53798;51.680;5.976;2022-11-04T09:06:35;8.45;;;3.17;;
66886;SDS011;53798;51.680;5.976;2022-11-04T09:09:06;12.15;;;3.28;;
66886;SDS011;53798;51.680;5.976;2022-11-04T09:11:38;6.85;;;3.10;;
66886;SDS011;53798;51.680;5.976;2022-11-04T09:14:08;8.65;;;3.10;;
66886;SDS011;53798;51.680;5.976;2022-11-04T09:16:38;10.43;;;3.20;;
66886;SDS011;53798;51.680;5.976;2022-11-04T09:19:07;10.13;;;3.30;;
66886;SDS011;53798;51.680;5.976;2022-11-04T09:21:34;13.45;;;3.25;;
66886;SDS011;53798;51.680;5.976;2022-11-04T09:24:02;11.82;;;2.95;;
66886;SDS011;53798;51.680;5.976;2022-11-04T09:26:30;9.52;;;2.60;;
66886;SDS011;53798;51.680;5.976;2022-11-04T09:28:57;10.02;;;3.50;;
66886;SDS011;53798;51.680;5.976;2022-11-04T09:31:26;7.13;;;3.30;;
66886;SDS011;53798;51.680;5.976;2022-11-04T09:33:56;11.02;;;3.20;;
66886;SDS011;53798;51.680;5.976;2022-11-04T09:36:23;9.18;;;3.17;;
66886;SDS011;53798;51.680;5.976;2022-11-04T09:38:50;11.80;;;3.25;;
66886;SDS011;53798;51.680;5.976;2022-11-04T09:46:56;6.97;;;2.90;;
66886;SDS011;53798;51.680;5.976;2022-11-04T09:49:31;10.55;;;4.10;;
66886;SDS011;53798;51.680;5.976;2022-11-04T09:52:05;10.20;;;3.40;;
66886;SDS011;53798;51.680;5.976;2022-11-04T09:54:49;10.55;;;3.95;;
66886;SDS011;53798;51.680;5.976;2022-11-04T09:57:27;8.82;;;4.00;;
66886;SDS011;53798;51.680;5.976;2022-11-04T09:59:55;9.25;;;3.65;;
66886;SDS011;53798;51.680;5.976;2022-11-04T10:02:27;10.07;;;3.80;;
66886;SDS011;53798;51.680;5.976;2022-11-04T10:11:03;13.45;;;4.15;;
66886;SDS011;53798;51.680;5.976;2022-11-04T10:14:04;8.52;;;4.10;;
66886;SDS011;53798;51.680;5.976;2022-11-04T10:16:50;10.43;;;4.22;;
66886;SDS011;53798;51.680;5.976;2022-11-04T10:26:04;9.57;;;3.80;;
66886;SDS011;53798;51.680;5.976;2022-11-04T10:28:29;13.45;;;4.10;;
66886;SDS011;53798;51.680;5.976;2022-11-04T10:31:16;12.80;;;4.07;;
66886;SDS011;53798;51.680;5.976;2022-11-04T10:33:46;13.00;;;4.20;;
66886;SDS011;53798;51.680;5.976;2022-11-04T10:36:20;14.82;;;4.60;;
66886;SDS011;53798;51.680;5.976;2022-11-04T10:38:51;11.40;;;3.85;;
66886;SDS011;53798;51.680;5.976;2022-11-04T10:41:34;10.38;;;3.90;;
66886;SDS011;53798;51.680;5.976;2022-11-04T10:44:15;10.93;;;4.03;;
66886;SDS011;53798;51.680;5.976;2022-11-04T10:47:03;9.43;;;3.42;;
66886;SDS011;53798;51.680;5.976;2022-11-04T10:53:13;9.80;;;3.88;;
66886;SDS011;53798;51.680;5.976;2022-11-04T10:58:40;12.23;;;4.45;;
66886;SDS011;53798;51.680;5.976;2022-11-04T11:04:01;9.43;;;3.85;;
66886;SDS011;53798;51.680;5.976;2022-11-04T11:06:33;11.65;;;4.18;;
66886;SDS011;53798;51.680;5.976;2022-11-04T11:09:12;10.48;;;4.97;;
66886;SDS011;53798;51.680;5.976;2022-11-04T11:19:48;10.23;;;4.97;;
66886;SDS011;53798;51.680;5.976;2022-11-04T11:22:47;12.07;;;4.65;;
66886;SDS011;53798;51.680;5.976;2022-11-04T11:25:27;12.10;;;4.53;;
66886;SDS011;53798;51.680;5.976;2022-11-04T11:28:11;11.95;;;5.00;;
66886;SDS011;53798;51.680;5.976;2022-11-04T11:30:53;12.57;;;4.90;;
66886;SDS011;53798;51.680;5.976;2022-11-04T11:33:25;11.52;;;4.63;;
66886;SDS011;53798;51.680;5.976;2022-11-04T11:36:06;11.05;;;4.80;;
66886;SDS011;53798;51.680;5.976;2022-11-04T11:38:52;15.07;;;5.28;;
66886;SDS011;53798;51.680;5.976;2022-11-04T11:41:24;15.20;;;5.28;;
66886;SDS011;53798;51.680;5.976;2022-11-04T11:44:00;18.17;;;5.70;;
66886;SDS011;53798;51.680;5.976;2022-11-04T11:46:49;11.20;;;4.93;;
66886;SDS011;53798;51.680;5.976;2022-11-04T11:49:24;14.38;;;5.35;;
66886;SDS011;53798;51.680;5.976;2022-11-04T11:55:20;12.63;;;5.53;;
66886;SDS011;53798;51.680;5.976;2022-11-04T12:04:29;18.70;;;6.13;;
66886;SDS011;53798;51.680;5.976;2022-11-04T12:07:24;13.60;;;5.30;;
66886;SDS011;53798;51.680;5.976;2022-11-04T12:10:41;15.60;;;5.75;;
66886;SDS011;53798;51.680;5.976;2022-11-04T12:13:20;9.18;;;5.35;;
66886;SDS011;53798;51.680;5.976;2022-11-04T12:16:04;15.00;;;6.32;;
66886;SDS011;53798;51.680;5.976;2022-11-04T12:21:38;12.90;;;5.15;;
66886;SDS011;53798;51.680;5.976;2022-11-04T12:41:34;15.40;;;5.45;;
66886;SDS011;53798;51.680;5.976;2022-11-04T12:44:08;14.27;;;6.05;;
66886;SDS011;53798;51.680;5.976;2022-11-04T12:46:56;32.35;;;6.40;;
66886;SDS011;53798;51.680;5.976;2022-11-04T12:56:05;11.65;;;4.75;;
66886;SDS011;53798;51.680;5.976;2022-11-04T13:01:32;12.48;;;5.13;;
66886;SDS011;53798;51.680;5.976;2022-11-04T13:04:19;13.43;;;5.03;;
66886;SDS011;53798;51.680;5.976;2022-11-04T13:06:52;12.70;;;4.72;;
66886;SDS011;53798;51.680;5.976;2022-11-04T13:12:12;15.82;;;5.10;;
66886;SDS011;53798;51.680;5.976;2022-11-04T13:14:54;13.73;;;5.07;;
66886;SDS011;53798;51.680;5.976;2022-11-04T13:17:37;17.95;;;5.97;;
66886;SDS011;53798;51.680;5.976;2022-11-04T13:22:44;20.33;;;6.25;;
66886;SDS011;53798;51.680;5.976;2022-11-04T13:25:18;10.65;;;5.05;;
66886;SDS011;53798;51.680;5.976;2022-11-04T13:28:02;13.85;;;5.30;;
66886;SDS011;53798;51.680;5.976;2022-11-04T13:30:42;14.18;;;5.30;;
66886;SDS011;53798;51.680;5.976;2022-11-04T13:36:35;11.85;;;6.03;;
66886;SDS011;53798;51.680;5.976;2022-11-04T13:44:36;14.35;;;6.72;;
66886;SDS011;53798;51.680;5.976;2022-11-04T13:47:13;23.60;;;7.55;;
66886;SDS011;53798;51.680;5.976;2022-11-04T13:49:49;12.10;;;6.85;;
66886;SDS011;53798;51.680;5.976;2022-11-04T13:52:22;14.43;;;7.22;;
66886;SDS011;53798;51.680;5.976;2022-11-04T13:55:00;12.77;;;7.43;;
66886;SDS011;53798;51.680;5.976;2022-11-04T13:57:34;12.15;;;7.10;;
66886;SDS011;53798;51.680;5.976;2022-11-04T14:00:23;16.85;;;7.40;;
66886;SDS011;53798;51.680;5.976;2022-11-04T14:02:58;22.30;;;7.43;;
66886;SDS011;53798;51.680;5.976;2022-11-04T14:08:33;22.25;;;9.32;;
66886;SDS011;53798;51.680;5.976;2022-11-04T14:11:05;14.57;;;8.32;;
66886;SDS011;53798;51.680;5.976;2022-11-04T14:13:40;17.35;;;8.38;;
66886;SDS011;53798;51.680;5.976;2022-11-04T14:16:10;15.70;;;8.88;;
66886;SDS011;53798;51.680;5.976;2022-11-04T14:18:52;12.70;;;8.65;;
66886;SDS011;53798;51.680;5.976;2022-11-04T14:21:21;17.85;;;9.02;;
66886;SDS011;53798;51.680;5.976;2022-11-04T14:23:58;20.48;;;9.40;;
66886;SDS011;53798;51.680;5.976;2022-11-04T14:26:45;16.90;;;9.38;;
66886;SDS011;53798;51.680;5.976;2022-11-04T14:31:58;16.88;;;9.77;;
66886;SDS011;53798;51.680;5.976;2022-11-04T14:34:30;15.73;;;9.32;;
66886;SDS011;53798;51.680;5.976;2022-11-04T14:37:20;18.02;;;10.48;;
66886;SDS011;53798;51.680;5.976;2022-11-04T14:39:53;19.83;;;9.95;;
66886;SDS011;53798;51.680;5.976;2022-11-04T14:45:20;19.00;;;10.52;;
66886;SDS011;53798;51.680;5.976;2022-11-04T14:48:00;25.85;;;10.68;;
66886;SDS011;53798;51.680;5.976;2022-11-04T14:50:50;19.65;;;11.60;;
66886;SDS011;53798;51.680;5.976;2022-11-04T14:53:27;21.33;;;11.38;;
66886;SDS011;53798;51.680;5.976;2022-11-04T14:59:04;31.67;;;12.80;;
66886;SDS011;53798;51.680;5.976;2022-11-04T15:01:35;24.35;;;12.80;;
66886;SDS011;53798;51.680;5.976;2022-11-04T15:04:49;30.10;;;12.40;;
66886;SDS011;53798;51.680;5.976;2022-11-04T15:06:59;25.45;;;13.38;;
66886;SDS011;53798;51.680;5.976;2022-11-04T15:09:31;25.27;;;12.45;;
66886;SDS011;53798;51.680;5.976;2022-11-04T15:12:10;27.80;;;12.52;;
66886;SDS011;53798;51.680;5.976;2022-11-04T15:14:59;24.80;;;10.95;;
66886;SDS011;53798;51.680;5.976;2022-11-04T15:17:29;16.95;;;11.20;;
66886;SDS011;53798;51.680;5.976;2022-11-04T15:19:59;22.98;;;11.48;;
66886;SDS011;53798;51.680;5.976;2022-11-04T15:22:30;17.75;;;11.68;;
66886;SDS011;53798;51.680;5.976;2022-11-04T15:24:58;22.02;;;11.88;;
66886;SDS011;53798;51.680;5.976;2022-11-04T15:27:32;25.45;;;12.20;;
66886;SDS011;53798;51.680;5.976;2022-11-04T15:30:00;18.80;;;11.32;;
66886;SDS011;53798;51.680;5.976;2022-11-04T15:32:31;26.27;;;11.45;;
66886;SDS011;53798;51.680;5.976;2022-11-04T15:34:58;18.23;;;11.45;;
66886;SDS011;53798;51.680;5.976;2022-11-04T15:37:28;20.13;;;11.00;;
66886;SDS011;53798;51.680;5.976;2022-11-04T15:39:56;17.98;;;11.00;;
66886;SDS011;53798;51.680;5.976;2022-11-04T15:42:25;20.35;;;10.57;;
66886;SDS011;53798;51.680;5.976;2022-11-04T15:45:27;18.75;;;10.25;;
66886;SDS011;53798;51.680;5.976;2022-11-04T15:48:21;14.38;;;9.93;;
66886;SDS011;53798;51.680;5.976;2022-11-04T15:51:08;17.48;;;10.48;;
66886;SDS011;53798;51.680;5.976;2022-11-04T15:53:53;17.80;;;10.25;;
66886;SDS011;53798;51.680;5.976;2022-11-04T15:56:24;16.75;;;10.05;;
66886;SDS011;53798;51.680;5.976;2022-11-04T15:59:13;16.13;;;11.10;;
66886;SDS011;53798;51.680;5.976;2022-11-04T16:01:47;24.48;;;10.82;;
66886;SDS011;53798;51.680;5.976;2022-11-04T16:04:19;19.63;;;10.68;;
66886;SDS011;53798;51.680;5.976;2022-11-04T16:10:30;10.52;;;6.70;;
66886;SDS011;53798;51.680;5.976;2022-11-04T16:15:46;10.77;;;6.80;;
66886;SDS011;53798;51.680;5.976;2022-11-04T16:21:06;13.05;;;6.80;;
66886;SDS011;53798;51.680;5.976;2022-11-04T16:23:52;14.27;;;6.25;;
66886;SDS011;53798;51.680;5.976;2022-11-04T16:26:43;10.52;;;6.20;;
66886;SDS011;53798;51.680;5.976;2022-11-04T16:29:13;11.48;;;5.60;;
66886;SDS011;53798;51.680;5.976;2022-11-04T16:32:04;8.02;;;3.63;;
66886;SDS011;53798;51.680;5.976;2022-11-04T16:34:54;4.97;;;2.55;;
66886;SDS011;53798;51.680;5.976;2022-11-04T16:37:26;7.32;;;3.05;;
66886;SDS011;53798;51.680;5.976;2022-11-04T16:39:53;5.00;;;2.65;;
66886;SDS011;53798;51.680;5.976;2022-11-04T16:42:20;5.45;;;2.40;;
66886;SDS011;53798;51.680;5.976;2022-11-04T16:44:53;3.40;;;1.35;;
66886;SDS011;53798;51.680;5.976;2022-11-04T16:47:25;9.00;;;1.60;;
66886;SDS011;53798;51.680;5.976;2022-11-04T16:49:58;7.10;;;1.23;;
66886;SDS011;53798;51.680;5.976;2022-11-04T16:52:27;3.47;;;1.17;;
66886;SDS011;53798;51.680;5.976;2022-11-04T16:54:54;3.03;;;1.00;;
66886;SDS011;53798;51.680;5.976;2022-11-04T16:57:23;4.30;;;1.20;;
66886;SDS011;53798;51.680;5.976;2022-11-04T16:59:51;3.58;;;1.50;;
66886;SDS011;53798;51.680;5.976;2022-11-04T17:02:25;5.40;;;1.23;;
66886;SDS011;53798;51.680;5.976;2022-11-04T17:05:04;4.68;;;1.63;;
66886;SDS011;53798;51.680;5.976;2022-11-04T17:07:32;2.55;;;1.25;;
66886;SDS011;53798;51.680;5.976;2022-11-04T17:10:20;1.65;;;1.05;;
66886;SDS011;53798;51.680;5.976;2022-11-04T17:12:55;2.33;;;1.00;;
66886;SDS011;53798;51.680;5.976;2022-11-04T17:15:24;1.55;;;0.90;;
66886;SDS011;53798;51.680;5.976;2022-11-04T17:17:51;1.48;;;0.90;;
66886;SDS011;53798;51.680;5.976;2022-11-04T17:20:18;6.68;;;1.17;;
66886;SDS011;53798;51.680;5.976;2022-11-04T17:22:47;2.53;;;1.20;;
66886;SDS011;53798;51.680;5.976;2022-11-04T17:25:16;1.77;;;0.90;;
66886;SDS011;53798;51.680;5.976;2022-11-04T17:27:46;2.42;;;1.30;;
66886;SDS011;53798;51.680;5.976;2022-11-04T17:30:15;3.53;;;1.35;;
66886;SDS011;53798;51.680;5.976;2022-11-04T17:32:43;5.53;;;1.40;;
66886;SDS011;53798;51.680;5.976;2022-11-04T17:35:12;3.17;;;1.20;;
66886;SDS011;53798;51.680;5.976;2022-11-04T17:37:42;2.03;;;1.20;;
66886;SDS011;53798;51.680;5.976;2022-11-04T17:40:11;4.82;;;1.27;;
66886;SDS011;53798;51.680;5.976;2022-11-04T17:42:42;1.40;;;1.00;;
66886;SDS011;53798;51.680;5.976;2022-11-04T17:45:37;3.13;;;1.30;;